sensor_id;sensor_type;location;lat;lon;timestamp;P1;P2;P0
76661;PMS5003;65579;45.534;6.212;2023-06-22T00:02:14;15;15;
76661;PMS5003;65579;45.534;6.212;2023-06-22T00:04:39;21;18;
76661;PMS5003;65579;45.534;6.212;2023-06-22T00:07:05;17;13;
76661;PMS5003;65579;45.534;6.212;2023-06-22T00:09:31;13;13;
76661;PMS5003;65579;45.534;6.212;2023-06-22T00:11:55;16;15;
76661;PMS5003;65579;45.534;6.212;2023-06-22T00:14:20;22;19;
76661;PMS5003;65579;45.534;6.212;2023-06-22T00:21:37;21;20;
76661;PMS5003;65579;45.534;6.212;2023-06-22T00:24:03;14;12;
76661;PMS5003;65579;45.534;6.212;2023-06-22T00:26:28;16;16;
76661;PMS5003;65579;45.534;6.212;2023-06-22T00:28:53;22;20;
76661;PMS5003;65579;45.534;6.212;2023-06-22T00:31:18;16;14;
76661;PMS5003;65579;45.534;6.212;2023-06-22T00:33:44;16;13;
76661;PMS5003;65579;45.534;6.212;2023-06-22T00:36:09;17;16;
76661;PMS5003;65579;45.534;6.212;2023-06-22T00:38:35;20;17;
76661;PMS5003;65579;45.534;6.212;2023-06-22T00:41:00;19;18;
76661;PMS5003;65579;45.534;6.212;2023-06-22T00:43:26;19;15;
76661;PMS5003;65579;45.534;6.212;2023-06-22T00:45:51;19;18;
76661;PMS5003;65579;45.534;6.212;2023-06-22T00:48:16;15;14;
76661;PMS5003;65579;45.534;6.212;2023-06-22T00:50:42;16;13;
76661;PMS5003;65579;45.534;6.212;2023-06-22T00:53:08;16;16;
76661;PMS5003;65579;45.534;6.212;2023-06-22T00:55:32;21;15;
76661;PMS5003;65579;45.534;6.212;2023-06-22T00:57:58;17;17;
76661;PMS5003;65579;45.534;6.212;2023-06-22T01:00:24;17;14;
76661;PMS5003;65579;45.534;6.212;2023-06-22T01:02:49;14;14;
76661;PMS5003;65579;45.534;6.212;2023-06-22T01:05:18;14;13;
76661;PMS5003;65579;45.534;6.212;2023-06-22T01:07:42;12;12;
76661;PMS5003;65579;45.534;6.212;2023-06-22T01:10:07;17;16;
76661;PMS5003;65579;45.534;6.212;2023-06-22T01:12:32;14;12;
76661;PMS5003;65579;45.534;6.212;2023-06-22T01:14:58;12;12;
76661;PMS5003;65579;45.534;6.212;2023-06-22T01:17:22;14;14;
76661;PMS5003;65579;45.534;6.212;2023-06-22T01:19:49;10;10;
76661;PMS5003;65579;45.534;6.212;2023-06-22T01:22:14;16;15;
76661;PMS5003;65579;45.534;6.212;2023-06-22T01:24:41;15;12;
76661;PMS5003;65579;45.534;6.212;2023-06-22T01:27:12;16;15;
76661;PMS5003;65579;45.534;6.212;2023-06-22T01:29:30;16;14;
76661;PMS5003;65579;45.534;6.212;2023-06-22T01:31:55;14;13;
76661;PMS5003;65579;45.534;6.212;2023-06-22T01:34:20;12;12;
76661;PMS5003;65579;45.534;6.212;2023-06-22T01:36:46;14;14;
76661;PMS5003;65579;45.534;6.212;2023-06-22T01:39:11;12;12;
76661;PMS5003;65579;45.534;6.212;2023-06-22T01:41:37;16;13;
76661;PMS5003;65579;45.534;6.212;2023-06-22T01:44:02;15;14;
76661;PMS5003;65579;45.534;6.212;2023-06-22T01:46:28;16;15;
76661;PMS5003;65579;45.534;6.212;2023-06-22T01:48:54;14;14;
76661;PMS5003;65579;45.534;6.212;2023-06-22T01:51:19;15;13;
76661;PMS5003;65579;45.534;6.212;2023-06-22T01:53:44;18;16;
76661;PMS5003;65579;45.534;6.212;2023-06-22T01:56:10;16;15;
76661;PMS5003;65579;45.534;6.212;2023-06-22T01:58:37;17;16;
76661;PMS5003;65579;45.534;6.212;2023-06-22T02:01:03;21;18;
76661;PMS5003;65579;45.534;6.212;2023-06-22T02:03:27;16;14;
76661;PMS5003;65579;45.534;6.212;2023-06-22T02:05:53;17;17;
76661;PMS5003;65579;45.534;6.212;2023-06-22T02:08:18;13;11;
76661;PMS5003;65579;45.534;6.212;2023-06-22T02:10:42;18;18;
76661;PMS5003;65579;45.534;6.212;2023-06-22T02:13:10;14;12;
76661;PMS5003;65579;45.534;6.212;2023-06-22T02:15:33;14;14;
76661;PMS5003;65579;45.534;6.212;2023-06-22T02:17:59;19;19;
76661;PMS5003;65579;45.534;6.212;2023-06-22T02:20:24;16;13;
76661;PMS5003;65579;45.534;6.212;2023-06-22T02:22:50;17;15;
76661;PMS5003;65579;45.534;6.212;2023-06-22T02:25:16;14;14;
76661;PMS5003;65579;45.534;6.212;2023-06-22T02:27:41;19;16;
76661;PMS5003;65579;45.534;6.212;2023-06-22T02:30:07;19;18;
76661;PMS5003;65579;45.534;6.212;2023-06-22T02:32:31;18;18;
76661;PMS5003;65579;45.534;6.212;2023-06-22T02:34:56;15;14;
76661;PMS5003;65579;45.534;6.212;2023-06-22T02:37:22;17;15;
76661;PMS5003;65579;45.534;6.212;2023-06-22T02:39:47;16;15;
76661;PMS5003;65579;45.534;6.212;2023-06-22T02:42:13;13;13;
76661;PMS5003;65579;45.534;6.212;2023-06-22T02:44:38;15;14;
76661;PMS5003;65579;45.534;6.212;2023-06-22T02:47:05;16;14;
76661;PMS5003;65579;45.534;6.212;2023-06-22T02:49:30;18;16;
76661;PMS5003;65579;45.534;6.212;2023-06-22T02:51:56;14;14;
76661;PMS5003;65579;45.534;6.212;2023-06-22T02:54:21;17;15;
76661;PMS5003;65579;45.534;6.212;2023-06-22T02:56:47;19;18;
76661;PMS5003;65579;45.534;6.212;2023-06-22T02:59:12;20;20;
76661;PMS5003;65579;45.534;6.212;2023-06-22T03:01:38;14;14;
76661;PMS5003;65579;45.534;6.212;2023-06-22T03:04:03;12;12;
76661;PMS5003;65579;45.534;6.212;2023-06-22T03:06:29;15;12;
76661;PMS5003;65579;45.534;6.212;2023-06-22T03:08:57;12;12;
76661;PMS5003;65579;45.534;6.212;2023-06-22T03:11:19;15;12;
76661;PMS5003;65579;45.534;6.212;2023-06-22T03:13:45;15;14;
76661;PMS5003;65579;45.534;6.212;2023-06-22T03:16:10;17;17;
76661;PMS5003;65579;45.534;6.212;2023-06-22T03:18:36;18;16;
76661;PMS5003;65579;45.534;6.212;2023-06-22T03:21:01;13;12;
76661;PMS5003;65579;45.534;6.212;2023-06-22T03:23:27;14;14;
76661;PMS5003;65579;45.534;6.212;2023-06-22T03:25:52;15;14;
76661;PMS5003;65579;45.534;6.212;2023-06-22T03:28:18;19;14;
76661;PMS5003;65579;45.534;6.212;2023-06-22T03:30:43;14;14;
76661;PMS5003;65579;45.534;6.212;2023-06-22T03:33:09;15;15;
76661;PMS5003;65579;45.534;6.212;2023-06-22T03:35:34;15;10;
76661;PMS5003;65579;45.534;6.212;2023-06-22T03:38:00;16;13;
76661;PMS5003;65579;45.534;6.212;2023-06-22T03:40:25;14;14;
76661;PMS5003;65579;45.534;6.212;2023-06-22T03:42:51;13;13;
76661;PMS5003;65579;45.534;6.212;2023-06-22T03:45:16;14;13;
76661;PMS5003;65579;45.534;6.212;2023-06-22T03:47:42;13;13;
76661;PMS5003;65579;45.534;6.212;2023-06-22T03:50:08;21;16;
76661;PMS5003;65579;45.534;6.212;2023-06-22T03:52:33;16;16;
76661;PMS5003;65579;45.534;6.212;2023-06-22T03:54:58;16;15;
76661;PMS5003;65579;45.534;6.212;2023-06-22T03:57:24;15;14;
76661;PMS5003;65579;45.534;6.212;2023-06-22T03:59:50;15;15;
76661;PMS5003;65579;45.534;6.212;2023-06-22T04:02:15;19;16;
76661;PMS5003;65579;45.534;6.212;2023-06-22T04:04:40;21;19;
76661;PMS5003;65579;45.534;6.212;2023-06-22T04:07:05;18;15;
76661;PMS5003;65579;45.534;6.212;2023-06-22T04:09:31;17;14;
76661;PMS5003;65579;45.534;6.212;2023-06-22T04:11:56;15;15;
76661;PMS5003;65579;45.534;6.212;2023-06-22T04:14:21;14;14;
76661;PMS5003;65579;45.534;6.212;2023-06-22T04:16:46;15;14;
76661;PMS5003;65579;45.534;6.212;2023-06-22T04:19:11;15;14;
76661;PMS5003;65579;45.534;6.212;2023-06-22T04:21:37;15;15;
76661;PMS5003;65579;45.534;6.212;2023-06-22T04:24:02;16;16;
76661;PMS5003;65579;45.534;6.212;2023-06-22T04:26:27;20;19;
76661;PMS5003;65579;45.534;6.212;2023-06-22T04:28:53;19;16;
76661;PMS5003;65579;45.534;6.212;2023-06-22T04:31:18;17;15;
76661;PMS5003;65579;45.534;6.212;2023-06-22T04:33:44;21;17;
76661;PMS5003;65579;45.534;6.212;2023-06-22T04:36:10;14;13;
76661;PMS5003;65579;45.534;6.212;2023-06-22T04:38:35;15;15;
76661;PMS5003;65579;45.534;6.212;2023-06-22T04:41:01;15;15;
76661;PMS5003;65579;45.534;6.212;2023-06-22T04:43:26;19;17;
76661;PMS5003;65579;45.534;6.212;2023-06-22T04:45:52;15;14;
76661;PMS5003;65579;45.534;6.212;2023-06-22T04:48:17;15;14;
76661;PMS5003;65579;45.534;6.212;2023-06-22T04:50:42;17;14;
76661;PMS5003;65579;45.534;6.212;2023-06-22T04:53:08;16;16;
76661;PMS5003;65579;45.534;6.212;2023-06-22T04:55:33;17;17;
76661;PMS5003;65579;45.534;6.212;2023-06-22T04:57:59;23;18;
76661;PMS5003;65579;45.534;6.212;2023-06-22T05:00:24;19;19;
76661;PMS5003;65579;45.534;6.212;2023-06-22T05:02:49;17;16;
76661;PMS5003;65579;45.534;6.212;2023-06-22T05:05:15;17;15;
76661;PMS5003;65579;45.534;6.212;2023-06-22T05:07:41;12;12;
76661;PMS5003;65579;45.534;6.212;2023-06-22T05:10:06;15;13;
76661;PMS5003;65579;45.534;6.212;2023-06-22T05:12:31;21;20;
76661;PMS5003;65579;45.534;6.212;2023-06-22T05:14:57;19;16;
76661;PMS5003;65579;45.534;6.212;2023-06-22T05:17:22;19;16;
76661;PMS5003;65579;45.534;6.212;2023-06-22T05:19:48;20;18;
76661;PMS5003;65579;45.534;6.212;2023-06-22T05:22:13;19;16;
76661;PMS5003;65579;45.534;6.212;2023-06-22T05:24:38;24;23;
76661;PMS5003;65579;45.534;6.212;2023-06-22T05:27:04;15;14;
76661;PMS5003;65579;45.534;6.212;2023-06-22T05:29:29;15;15;
76661;PMS5003;65579;45.534;6.212;2023-06-22T05:31:55;19;19;
76661;PMS5003;65579;45.534;6.212;2023-06-22T05:34:20;20;19;
76661;PMS5003;65579;45.534;6.212;2023-06-22T05:36:45;18;16;
76661;PMS5003;65579;45.534;6.212;2023-06-22T05:39:11;18;16;
76661;PMS5003;65579;45.534;6.212;2023-06-22T05:41:36;16;14;
76661;PMS5003;65579;45.534;6.212;2023-06-22T05:44:02;18;16;
76661;PMS5003;65579;45.534;6.212;2023-06-22T05:46:28;17;17;
76661;PMS5003;65579;45.534;6.212;2023-06-22T05:48:53;25;21;
76661;PMS5003;65579;45.534;6.212;2023-06-22T05:51:19;17;17;
76661;PMS5003;65579;45.534;6.212;2023-06-22T05:53:45;16;16;
76661;PMS5003;65579;45.534;6.212;2023-06-22T05:56:10;16;16;
76661;PMS5003;65579;45.534;6.212;2023-06-22T05:58:35;18;15;
76661;PMS5003;65579;45.534;6.212;2023-06-22T06:01:01;19;17;
76661;PMS5003;65579;45.534;6.212;2023-06-22T06:03:27;14;14;
76661;PMS5003;65579;45.534;6.212;2023-06-22T06:05:52;18;14;
76661;PMS5003;65579;45.534;6.212;2023-06-22T06:08:17;17;17;
76661;PMS5003;65579;45.534;6.212;2023-06-22T06:10:43;20;19;
76661;PMS5003;65579;45.534;6.212;2023-06-22T06:13:08;19;15;
76661;PMS5003;65579;45.534;6.212;2023-06-22T06:15:34;25;22;
76661;PMS5003;65579;45.534;6.212;2023-06-22T06:18:00;15;15;
76661;PMS5003;65579;45.534;6.212;2023-06-22T06:20:26;17;16;
76661;PMS5003;65579;45.534;6.212;2023-06-22T06:22:51;17;17;
76661;PMS5003;65579;45.534;6.212;2023-06-22T06:25:17;16;16;
76661;PMS5003;65579;45.534;6.212;2023-06-22T06:27:43;18;17;
76661;PMS5003;65579;45.534;6.212;2023-06-22T06:30:08;17;16;
76661;PMS5003;65579;45.534;6.212;2023-06-22T06:32:33;20;20;
76661;PMS5003;65579;45.534;6.212;2023-06-22T06:34:59;19;18;
76661;PMS5003;65579;45.534;6.212;2023-06-22T06:37:24;17;16;
76661;PMS5003;65579;45.534;6.212;2023-06-22T06:39:49;15;15;
76661;PMS5003;65579;45.534;6.212;2023-06-22T06:42:14;20;18;
76661;PMS5003;65579;45.534;6.212;2023-06-22T06:44:40;19;17;
76661;PMS5003;65579;45.534;6.212;2023-06-22T06:47:05;20;20;
76661;PMS5003;65579;45.534;6.212;2023-06-22T06:49:31;16;13;
76661;PMS5003;65579;45.534;6.212;2023-06-22T06:51:57;20;18;
76661;PMS5003;65579;45.534;6.212;2023-06-22T06:54:22;17;15;
76661;PMS5003;65579;45.534;6.212;2023-06-22T06:56:48;13;13;
76661;PMS5003;65579;45.534;6.212;2023-06-22T06:59:14;18;18;
76661;PMS5003;65579;45.534;6.212;2023-06-22T07:01:39;17;16;
76661;PMS5003;65579;45.534;6.212;2023-06-22T07:04:04;18;18;
76661;PMS5003;65579;45.534;6.212;2023-06-22T07:06:29;16;15;
76661;PMS5003;65579;45.534;6.212;2023-06-22T07:08:55;18;15;
76661;PMS5003;65579;45.534;6.212;2023-06-22T07:11:21;18;15;
76661;PMS5003;65579;45.534;6.212;2023-06-22T07:13:47;14;14;
76661;PMS5003;65579;45.534;6.212;2023-06-22T07:16:13;19;19;
76661;PMS5003;65579;45.534;6.212;2023-06-22T07:18:39;15;14;
76661;PMS5003;65579;45.534;6.212;2023-06-22T07:21:03;16;16;
76661;PMS5003;65579;45.534;6.212;2023-06-22T07:23:28;20;20;
76661;PMS5003;65579;45.534;6.212;2023-06-22T07:25:54;20;16;
76661;PMS5003;65579;45.534;6.212;2023-06-22T07:28:19;15;13;
76661;PMS5003;65579;45.534;6.212;2023-06-22T07:30:44;16;15;
76661;PMS5003;65579;45.534;6.212;2023-06-22T07:33:10;18;16;
76661;PMS5003;65579;45.534;6.212;2023-06-22T07:35:35;15;15;
76661;PMS5003;65579;45.534;6.212;2023-06-22T07:38:01;18;13;
76661;PMS5003;65579;45.534;6.212;2023-06-22T07:40:27;20;18;
76661;PMS5003;65579;45.534;6.212;2023-06-22T07:42:52;13;13;
76661;PMS5003;65579;45.534;6.212;2023-06-22T07:45:17;18;16;
76661;PMS5003;65579;45.534;6.212;2023-06-22T07:47:43;19;19;
76661;PMS5003;65579;45.534;6.212;2023-06-22T07:50:09;22;21;
76661;PMS5003;65579;45.534;6.212;2023-06-22T07:52:34;17;17;
76661;PMS5003;65579;45.534;6.212;2023-06-22T07:54:59;16;16;
76661;PMS5003;65579;45.534;6.212;2023-06-22T07:57:25;19;19;
76661;PMS5003;65579;45.534;6.212;2023-06-22T07:59:50;17;14;
76661;PMS5003;65579;45.534;6.212;2023-06-22T08:02:16;18;18;
76661;PMS5003;65579;45.534;6.212;2023-06-22T08:04:41;21;18;
76661;PMS5003;65579;45.534;6.212;2023-06-22T08:07:07;16;14;
76661;PMS5003;65579;45.534;6.212;2023-06-22T08:09:32;15;15;
76661;PMS5003;65579;45.534;6.212;2023-06-22T08:11:57;16;15;
76661;PMS5003;65579;45.534;6.212;2023-06-22T08:14:22;20;17;
76661;PMS5003;65579;45.534;6.212;2023-06-22T08:16:48;21;20;
76661;PMS5003;65579;45.534;6.212;2023-06-22T08:19:15;24;17;
76661;PMS5003;65579;45.534;6.212;2023-06-22T08:21:41;22;17;
76661;PMS5003;65579;45.534;6.212;2023-06-22T08:24:06;19;17;
76661;PMS5003;65579;45.534;6.212;2023-06-22T08:26:30;17;17;
76661;PMS5003;65579;45.534;6.212;2023-06-22T08:28:56;21;20;
76661;PMS5003;65579;45.534;6.212;2023-06-22T08:31:21;18;17;
76661;PMS5003;65579;45.534;6.212;2023-06-22T08:33:46;15;15;
76661;PMS5003;65579;45.534;6.212;2023-06-22T08:36:11;13;13;
76661;PMS5003;65579;45.534;6.212;2023-06-22T08:38:37;14;14;
76661;PMS5003;65579;45.534;6.212;2023-06-22T08:41:02;18;17;
76661;PMS5003;65579;45.534;6.212;2023-06-22T08:43:27;13;13;
76661;PMS5003;65579;45.534;6.212;2023-06-22T08:45:53;21;20;
76661;PMS5003;65579;45.534;6.212;2023-06-22T08:48:18;17;17;
76661;PMS5003;65579;45.534;6.212;2023-06-22T08:50:44;12;11;
76661;PMS5003;65579;45.534;6.212;2023-06-22T08:53:09;16;16;
76661;PMS5003;65579;45.534;6.212;2023-06-22T08:55:35;15;15;
76661;PMS5003;65579;45.534;6.212;2023-06-22T08:58:00;14;10;
76661;PMS5003;65579;45.534;6.212;2023-06-22T09:00:26;14;12;
76661;PMS5003;65579;45.534;6.212;2023-06-22T09:02:51;13;11;
76661;PMS5003;65579;45.534;6.212;2023-06-22T09:05:17;12;10;
76661;PMS5003;65579;45.534;6.212;2023-06-22T09:07:42;9;9;
76661;PMS5003;65579;45.534;6.212;2023-06-22T09:10:08;13;12;
76661;PMS5003;65579;45.534;6.212;2023-06-22T09:12:33;15;13;
76661;PMS5003;65579;45.534;6.212;2023-06-22T09:15:00;16;14;
76661;PMS5003;65579;45.534;6.212;2023-06-22T09:17:25;17;17;
76661;PMS5003;65579;45.534;6.212;2023-06-22T09:19:50;14;14;
76661;PMS5003;65579;45.534;6.212;2023-06-22T09:22:16;12;11;
76661;PMS5003;65579;45.534;6.212;2023-06-22T09:24:41;20;19;
76661;PMS5003;65579;45.534;6.212;2023-06-22T09:27:06;10;10;
76661;PMS5003;65579;45.534;6.212;2023-06-22T09:29:31;15;13;
76661;PMS5003;65579;45.534;6.212;2023-06-22T09:31:57;12;12;
76661;PMS5003;65579;45.534;6.212;2023-06-22T09:34:22;13;13;
76661;PMS5003;65579;45.534;6.212;2023-06-22T09:36:48;13;13;
76661;PMS5003;65579;45.534;6.212;2023-06-22T09:39:13;12;10;
76661;PMS5003;65579;45.534;6.212;2023-06-22T09:41:38;11;11;
76661;PMS5003;65579;45.534;6.212;2023-06-22T09:44:04;14;14;
76661;PMS5003;65579;45.534;6.212;2023-06-22T09:46:29;13;12;
76661;PMS5003;65579;45.534;6.212;2023-06-22T09:48:55;17;14;
76661;PMS5003;65579;45.534;6.212;2023-06-22T09:51:20;14;14;
76661;PMS5003;65579;45.534;6.212;2023-06-22T09:53:46;11;11;
76661;PMS5003;65579;45.534;6.212;2023-06-22T09:56:11;19;18;
76661;PMS5003;65579;45.534;6.212;2023-06-22T09:58:36;13;12;
76661;PMS5003;65579;45.534;6.212;2023-06-22T10:01:02;12;12;
76661;PMS5003;65579;45.534;6.212;2023-06-22T10:03:27;17;17;
76661;PMS5003;65579;45.534;6.212;2023-06-22T10:05:53;17;16;
76661;PMS5003;65579;45.534;6.212;2023-06-22T10:08:17;11;10;
76661;PMS5003;65579;45.534;6.212;2023-06-22T10:10:43;11;10;
76661;PMS5003;65579;45.534;6.212;2023-06-22T10:13:11;9;9;
76661;PMS5003;65579;45.534;6.212;2023-06-22T10:15:42;7;7;
76661;PMS5003;65579;45.534;6.212;2023-06-22T10:18:00;11;11;
76661;PMS5003;65579;45.534;6.212;2023-06-22T10:20:26;12;11;
76661;PMS5003;65579;45.534;6.212;2023-06-22T10:22:50;9;9;
76661;PMS5003;65579;45.534;6.212;2023-06-22T10:25:16;10;8;
76661;PMS5003;65579;45.534;6.212;2023-06-22T10:27:42;13;13;
76661;PMS5003;65579;45.534;6.212;2023-06-22T10:30:07;9;9;
76661;PMS5003;65579;45.534;6.212;2023-06-22T10:32:32;14;9;
76661;PMS5003;65579;45.534;6.212;2023-06-22T10:34:58;9;9;
76661;PMS5003;65579;45.534;6.212;2023-06-22T10:37:24;10;9;
76661;PMS5003;65579;45.534;6.212;2023-06-22T10:39:49;8;8;
76661;PMS5003;65579;45.534;6.212;2023-06-22T10:42:15;11;9;
76661;PMS5003;65579;45.534;6.212;2023-06-22T10:44:40;12;10;
76661;PMS5003;65579;45.534;6.212;2023-06-22T10:47:06;8;6;
76661;PMS5003;65579;45.534;6.212;2023-06-22T10:49:32;11;9;
76661;PMS5003;65579;45.534;6.212;2023-06-22T10:51:57;10;9;
76661;PMS5003;65579;45.534;6.212;2023-06-22T10:54:22;14;14;
76661;PMS5003;65579;45.534;6.212;2023-06-22T10:56:48;10;9;
76661;PMS5003;65579;45.534;6.212;2023-06-22T10:59:14;18;17;
76661;PMS5003;65579;45.534;6.212;2023-06-22T11:01:39;12;11;
76661;PMS5003;65579;45.534;6.212;2023-06-22T11:04:05;12;10;
76661;PMS5003;65579;45.534;6.212;2023-06-22T11:06:30;6;5;
76661;PMS5003;65579;45.534;6.212;2023-06-22T11:08:56;7;7;
76661;PMS5003;65579;45.534;6.212;2023-06-22T11:11:21;11;11;
76661;PMS5003;65579;45.534;6.212;2023-06-22T11:13:47;11;11;
76661;PMS5003;65579;45.534;6.212;2023-06-22T11:16:12;11;9;
76661;PMS5003;65579;45.534;6.212;2023-06-22T11:18:38;15;11;
76661;PMS5003;65579;45.534;6.212;2023-06-22T11:21:04;9;9;
76661;PMS5003;65579;45.534;6.212;2023-06-22T11:23:29;9;8;
76661;PMS5003;65579;45.534;6.212;2023-06-22T11:25:55;9;6;
76661;PMS5003;65579;45.534;6.212;2023-06-22T11:28:20;9;9;
76661;PMS5003;65579;45.534;6.212;2023-06-22T11:30:46;8;7;
76661;PMS5003;65579;45.534;6.212;2023-06-22T11:33:12;6;6;
76661;PMS5003;65579;45.534;6.212;2023-06-22T11:35:37;8;6;
76661;PMS5003;65579;45.534;6.212;2023-06-22T11:38:03;7;7;
76661;PMS5003;65579;45.534;6.212;2023-06-22T11:40:28;9;7;
76661;PMS5003;65579;45.534;6.212;2023-06-22T11:42:54;9;7;
76661;PMS5003;65579;45.534;6.212;2023-06-22T11:45:20;10;8;
76661;PMS5003;65579;45.534;6.212;2023-06-22T11:47:45;7;7;
76661;PMS5003;65579;45.534;6.212;2023-06-22T11:50:11;10;9;
76661;PMS5003;65579;45.534;6.212;2023-06-22T11:52:36;7;7;
76661;PMS5003;65579;45.534;6.212;2023-06-22T11:55:02;8;7;
76661;PMS5003;65579;45.534;6.212;2023-06-22T11:57:28;9;8;
76661;PMS5003;65579;45.534;6.212;2023-06-22T11:59:54;7;7;
76661;PMS5003;65579;45.534;6.212;2023-06-22T12:02:19;18;11;
76661;PMS5003;65579;45.534;6.212;2023-06-22T12:04:45;11;10;
76661;PMS5003;65579;45.534;6.212;2023-06-22T12:07:10;7;6;
76661;PMS5003;65579;45.534;6.212;2023-06-22T12:09:36;9;8;
76661;PMS5003;65579;45.534;6.212;2023-06-22T12:12:02;7;7;
76661;PMS5003;65579;45.534;6.212;2023-06-22T12:14:27;6;6;
76661;PMS5003;65579;45.534;6.212;2023-06-22T12:16:53;11;9;
76661;PMS5003;65579;45.534;6.212;2023-06-22T12:19:19;18;17;
76661;PMS5003;65579;45.534;6.212;2023-06-22T12:21:44;4;4;
76661;PMS5003;65579;45.534;6.212;2023-06-22T12:24:10;10;9;
76661;PMS5003;65579;45.534;6.212;2023-06-22T12:26:35;8;7;
76661;PMS5003;65579;45.534;6.212;2023-06-22T12:29:00;7;6;
76661;PMS5003;65579;45.534;6.212;2023-06-22T12:31:26;8;8;
76661;PMS5003;65579;45.534;6.212;2023-06-22T12:33:51;10;8;
76661;PMS5003;65579;45.534;6.212;2023-06-22T12:36:17;7;6;
76661;PMS5003;65579;45.534;6.212;2023-06-22T12:38:42;11;10;
76661;PMS5003;65579;45.534;6.212;2023-06-22T12:41:08;7;7;
76661;PMS5003;65579;45.534;6.212;2023-06-22T12:43:33;10;10;
76661;PMS5003;65579;45.534;6.212;2023-06-22T12:45:59;10;9;
76661;PMS5003;65579;45.534;6.212;2023-06-22T12:48:25;12;8;
76661;PMS5003;65579;45.534;6.212;2023-06-22T12:50:50;10;8;
76661;PMS5003;65579;45.534;6.212;2023-06-22T12:53:15;8;8;
76661;PMS5003;65579;45.534;6.212;2023-06-22T12:55:41;12;12;
76661;PMS5003;65579;45.534;6.212;2023-06-22T12:58:06;8;8;
76661;PMS5003;65579;45.534;6.212;2023-06-22T13:00:31;7;7;
76661;PMS5003;65579;45.534;6.212;2023-06-22T13:02:57;10;9;
76661;PMS5003;65579;45.534;6.212;2023-06-22T13:05:23;8;8;
76661;PMS5003;65579;45.534;6.212;2023-06-22T13:07:48;10;10;
76661;PMS5003;65579;45.534;6.212;2023-06-22T13:10:13;12;8;
76661;PMS5003;65579;45.534;6.212;2023-06-22T13:12:39;8;6;
76661;PMS5003;65579;45.534;6.212;2023-06-22T13:15:05;14;11;
76661;PMS5003;65579;45.534;6.212;2023-06-22T13:17:30;12;12;
76661;PMS5003;65579;45.534;6.212;2023-06-22T13:19:55;9;9;
76661;PMS5003;65579;45.534;6.212;2023-06-22T13:22:27;9;8;
76661;PMS5003;65579;45.534;6.212;2023-06-22T13:24:46;14;14;
76661;PMS5003;65579;45.534;6.212;2023-06-22T13:27:11;9;9;
76661;PMS5003;65579;45.534;6.212;2023-06-22T13:29:36;13;13;
76661;PMS5003;65579;45.534;6.212;2023-06-22T13:32:03;12;9;
76661;PMS5003;65579;45.534;6.212;2023-06-22T13:34:28;10;8;
76661;PMS5003;65579;45.534;6.212;2023-06-22T13:36:53;15;12;
76661;PMS5003;65579;45.534;6.212;2023-06-22T13:39:18;11;8;
76661;PMS5003;65579;45.534;6.212;2023-06-22T13:41:44;17;17;
76661;PMS5003;65579;45.534;6.212;2023-06-22T13:44:10;8;8;
76661;PMS5003;65579;45.534;6.212;2023-06-22T13:46:35;8;8;
76661;PMS5003;65579;45.534;6.212;2023-06-22T13:49:01;9;9;
76661;PMS5003;65579;45.534;6.212;2023-06-22T13:51:26;14;9;
76661;PMS5003;65579;45.534;6.212;2023-06-22T13:53:52;8;8;
76661;PMS5003;65579;45.534;6.212;2023-06-22T13:56:17;11;9;
76661;PMS5003;65579;45.534;6.212;2023-06-22T13:58:42;7;6;
76661;PMS5003;65579;45.534;6.212;2023-06-22T14:01:08;11;8;
76661;PMS5003;65579;45.534;6.212;2023-06-22T14:03:33;10;8;
76661;PMS5003;65579;45.534;6.212;2023-06-22T14:05:58;11;9;
76661;PMS5003;65579;45.534;6.212;2023-06-22T14:08:24;14;11;
76661;PMS5003;65579;45.534;6.212;2023-06-22T14:10:49;7;7;
76661;PMS5003;65579;45.534;6.212;2023-06-22T14:13:14;7;7;
76661;PMS5003;65579;45.534;6.212;2023-06-22T14:15:40;11;9;
76661;PMS5003;65579;45.534;6.212;2023-06-22T14:18:05;11;11;
76661;PMS5003;65579;45.534;6.212;2023-06-22T14:20:31;8;8;
76661;PMS5003;65579;45.534;6.212;2023-06-22T14:22:56;13;11;
76661;PMS5003;65579;45.534;6.212;2023-06-22T14:25:22;13;10;
76661;PMS5003;65579;45.534;6.212;2023-06-22T14:42:09;17;2;
76661;PMS5003;65579;45.534;6.212;2023-06-22T14:44:35;3;3;
76661;PMS5003;65579;45.534;6.212;2023-06-22T14:47:00;7;4;
76661;PMS5003;65579;45.534;6.212;2023-06-22T14:49:25;5;3;
76661;PMS5003;65579;45.534;6.212;2023-06-22T14:51:50;7;4;
76661;PMS5003;65579;45.534;6.212;2023-06-22T14:54:15;3;2;
76661;PMS5003;65579;45.534;6.212;2023-06-22T14:56:41;1;1;
76661;PMS5003;65579;45.534;6.212;2023-06-22T14:59:06;3;3;
76661;PMS5003;65579;45.534;6.212;2023-06-22T15:01:31;3;3;
76661;PMS5003;65579;45.534;6.212;2023-06-22T15:03:56;3;3;
76661;PMS5003;65579;45.534;6.212;2023-06-22T15:06:21;2;2;
76661;PMS5003;65579;45.534;6.212;2023-06-22T15:08:47;1;1;
76661;PMS5003;65579;45.534;6.212;2023-06-22T15:11:12;3;3;
76661;PMS5003;65579;45.534;6.212;2023-06-22T15:13:38;1;1;
76661;PMS5003;65579;45.534;6.212;2023-06-22T15:16:02;4;3;
76661;PMS5003;65579;45.534;6.212;2023-06-22T15:18:27;2;1;
76661;PMS5003;65579;45.534;6.212;2023-06-22T15:20:52;2;2;
76661;PMS5003;65579;45.534;6.212;2023-06-22T15:23:17;3;3;
76661;PMS5003;65579;45.534;6.212;2023-06-22T15:25:43;3;3;
76661;PMS5003;65579;45.534;6.212;2023-06-22T15:28:07;2;2;
76661;PMS5003;65579;45.534;6.212;2023-06-22T15:30:33;3;3;
76661;PMS5003;65579;45.534;6.212;2023-06-22T15:32:58;6;6;
76661;PMS5003;65579;45.534;6.212;2023-06-22T15:35:23;3;3;
76661;PMS5003;65579;45.534;6.212;2023-06-22T15:37:48;3;3;
76661;PMS5003;65579;45.534;6.212;2023-06-22T15:40:13;2;2;
76661;PMS5003;65579;45.534;6.212;2023-06-22T15:44:31;0;0;
76661;PMS5003;65579;45.534;6.212;2023-06-22T15:46:56;4;4;
76661;PMS5003;65579;45.534;6.212;2023-06-22T15:49:21;2;2;
76661;PMS5003;65579;45.534;6.212;2023-06-22T15:51:46;1;1;
76661;PMS5003;65579;45.534;6.212;2023-06-22T15:54:11;5;5;
76661;PMS5003;65579;45.534;6.212;2023-06-22T15:56:36;0;0;
76661;PMS5003;65579;45.534;6.212;2023-06-22T15:59:01;2;2;
76661;PMS5003;65579;45.534;6.212;2023-06-22T16:01:26;4;3;
76661;PMS5003;65579;45.534;6.212;2023-06-22T16:03:52;2;2;
76661;PMS5003;65579;45.534;6.212;2023-06-22T16:06:17;4;3;
76661;PMS5003;65579;45.534;6.212;2023-06-22T16:08:43;3;3;
76661;PMS5003;65579;45.534;6.212;2023-06-22T16:11:08;2;2;
76661;PMS5003;65579;45.534;6.212;2023-06-22T16:13:34;3;2;
76661;PMS5003;65579;45.534;6.212;2023-06-22T16:16:00;3;3;
76661;PMS5003;65579;45.534;6.212;2023-06-22T16:18:26;4;3;
76661;PMS5003;65579;45.534;6.212;2023-06-22T16:20:52;3;3;
76661;PMS5003;65579;45.534;6.212;2023-06-22T16:23:18;2;2;
76661;PMS5003;65579;45.534;6.212;2023-06-22T16:25:43;3;3;
76661;PMS5003;65579;45.534;6.212;2023-06-22T16:28:09;3;2;
76661;PMS5003;65579;45.534;6.212;2023-06-22T16:30:34;2;2;
76661;PMS5003;65579;45.534;6.212;2023-06-22T16:32:59;2;2;
76661;PMS5003;65579;45.534;6.212;2023-06-22T16:35:25;5;4;